sensor_id;sensor_type;location;lat;lon;timestamp;P1;durP1;ratioP1;P2;durP2;ratioP2
38725;SDS011;24474;48.906;8.808;2022-08-11T00:01:51;4.30;;;1.40;;
38725;SDS011;24474;48.906;8.808;2022-08-11T00:04:23;3.65;;;1.52;;
38725;SDS011;24474;48.906;8.808;2022-08-11T00:06:50;3.90;;;1.55;;
38725;SDS011;24474;48.906;8.808;2022-08-11T00:09:21;3.13;;;1.70;;
38725;SDS011;24474;48.906;8.808;2022-08-11T00:14:45;1.98;;;1.40;;
38725;SDS011;24474;48.906;8.808;2022-08-11T00:17:25;2.47;;;1.60;;
38725;SDS011;24474;48.906;8.808;2022-08-11T00:19:59;6.20;;;1.88;;
38725;SDS011;24474;48.906;8.808;2022-08-11T00:22:34;3.65;;;1.45;;
38725;SDS011;24474;48.906;8.808;2022-08-11T00:25:14;4.95;;;1.42;;
38725;SDS011;24474;48.906;8.808;2022-08-11T00:27:42;1.92;;;1.50;;
38725;SDS011;24474;48.906;8.808;2022-08-11T00:30:09;2.75;;;1.55;;
38725;SDS011;24474;48.906;8.808;2022-08-11T00:32:38;1.98;;;1.38;;
38725;SDS011;24474;48.906;8.808;2022-08-11T00:35:07;3.95;;;1.40;;
38725;SDS011;24474;48.906;8.808;2022-08-11T00:37:38;3.22;;;1.50;;
38725;SDS011;24474;48.906;8.808;2022-08-11T00:46:31;3.75;;;1.50;;
38725;SDS011;24474;48.906;8.808;2022-08-11T00:49:37;3.38;;;1.38;;
38725;SDS011;24474;48.906;8.808;2022-08-11T01:01:26;5.18;;;1.52;;
38725;SDS011;24474;48.906;8.808;2022-08-11T01:18:24;3.60;;;1.80;;
38725;SDS011;24474;48.906;8.808;2022-08-11T01:21:04;4.80;;;1.60;;
38725;SDS011;24474;48.906;8.808;2022-08-11T01:29:48;5.15;;;1.80;;
38725;SDS011;24474;48.906;8.808;2022-08-11T01:47:09;3.60;;;1.83;;
38725;SDS011;24474;48.906;8.808;2022-08-11T01:50:18;6.45;;;1.85;;
38725;SDS011;24474;48.906;8.808;2022-08-11T02:08:14;3.72;;;1.60;;
38725;SDS011;24474;48.906;8.808;2022-08-11T02:11:21;2.72;;;1.60;;
38725;SDS011;24474;48.906;8.808;2022-08-11T02:20:06;4.53;;;1.80;;
38725;SDS011;24474;48.906;8.808;2022-08-11T02:23:22;2.35;;;1.48;;
38725;SDS011;24474;48.906;8.808;2022-08-11T02:26:09;4.28;;;2.00;;
38725;SDS011;24474;48.906;8.808;2022-08-11T02:31:53;3.53;;;1.60;;
38725;SDS011;24474;48.906;8.808;2022-08-11T02:34:50;3.55;;;1.80;;
38725;SDS011;24474;48.906;8.808;2022-08-11T02:38:39;5.53;;;1.57;;
38725;SDS011;24474;48.906;8.808;2022-08-11T02:41:00;5.82;;;1.70;;
38725;SDS011;24474;48.906;8.808;2022-08-11T02:46:45;4.18;;;1.92;;
38725;SDS011;24474;48.906;8.808;2022-08-11T02:50:04;3.75;;;1.83;;
38725;SDS011;24474;48.906;8.808;2022-08-11T02:55:17;4.35;;;1.85;;
38725;SDS011;24474;48.906;8.808;2022-08-11T03:00:46;3.40;;;2.03;;
38725;SDS011;24474;48.906;8.808;2022-08-11T03:09:48;4.20;;;2.13;;
38725;SDS011;24474;48.906;8.808;2022-08-11T03:12:29;4.32;;;2.10;;
38725;SDS011;24474;48.906;8.808;2022-08-11T03:15:45;3.67;;;2.03;;
38725;SDS011;24474;48.906;8.808;2022-08-11T03:19:07;2.92;;;1.65;;
38725;SDS011;24474;48.906;8.808;2022-08-11T03:21:47;3.65;;;2.10;;
38725;SDS011;24474;48.906;8.808;2022-08-11T03:36:00;3.97;;;2.13;;
38725;SDS011;24474;48.906;8.808;2022-08-11T03:41:43;5.90;;;2.15;;
38725;SDS011;24474;48.906;8.808;2022-08-11T03:44:24;6.57;;;2.38;;
38725;SDS011;24474;48.906;8.808;2022-08-11T03:47:27;3.92;;;2.10;;
38725;SDS011;24474;48.906;8.808;2022-08-11T03:52:48;3.03;;;1.80;;
38725;SDS011;24474;48.906;8.808;2022-08-11T04:49:24;5.60;;;2.60;;
38725;SDS011;24474;48.906;8.808;2022-08-11T04:52:36;4.32;;;2.50;;
38725;SDS011;24474;48.906;8.808;2022-08-11T04:59:03;5.47;;;2.47;;
38725;SDS011;24474;48.906;8.808;2022-08-11T05:08:11;8.63;;;2.63;;
38725;SDS011;24474;48.906;8.808;2022-08-11T05:13:38;3.92;;;2.75;;
38725;SDS011;24474;48.906;8.808;2022-08-11T05:16:52;3.92;;;2.17;;
38725;SDS011;24474;48.906;8.808;2022-08-11T05:19:44;6.55;;;2.45;;
38725;SDS011;24474;48.906;8.808;2022-08-11T05:22:29;6.80;;;2.53;;
38725;SDS011;24474;48.906;8.808;2022-08-11T05:25:18;2.95;;;2.25;;
38725;SDS011;24474;48.906;8.808;2022-08-11T05:31:00;5.63;;;2.78;;
38725;SDS011;24474;48.906;8.808;2022-08-11T05:33:49;4.03;;;2.28;;
38725;SDS011;24474;48.906;8.808;2022-08-11T05:39:16;5.63;;;2.50;;
38725;SDS011;24474;48.906;8.808;2022-08-11T05:42:07;9.05;;;2.55;;
38725;SDS011;24474;48.906;8.808;2022-08-11T05:44:52;5.53;;;2.10;;
38725;SDS011;24474;48.906;8.808;2022-08-11T05:47:40;7.10;;;2.42;;
38725;SDS011;24474;48.906;8.808;2022-08-11T05:50:26;2.53;;;2.00;;
38725;SDS011;24474;48.906;8.808;2022-08-11T05:53:13;3.15;;;2.10;;
38725;SDS011;24474;48.906;8.808;2022-08-11T05:56:03;3.25;;;1.92;;
38725;SDS011;24474;48.906;8.808;2022-08-11T05:58:48;3.25;;;2.10;;
38725;SDS011;24474;48.906;8.808;2022-08-11T06:01:26;4.75;;;2.10;;
38725;SDS011;24474;48.906;8.808;2022-08-11T06:03:58;4.80;;;2.13;;
38725;SDS011;24474;48.906;8.808;2022-08-11T06:06:54;4.10;;;1.90;;
38725;SDS011;24474;48.906;8.808;2022-08-11T06:09:30;3.75;;;2.10;;
38725;SDS011;24474;48.906;8.808;2022-08-11T06:11:58;5.63;;;2.40;;
38725;SDS011;24474;48.906;8.808;2022-08-11T06:14:27;5.18;;;2.08;;
38725;SDS011;24474;48.906;8.808;2022-08-11T06:16:56;4.40;;;2.03;;
38725;SDS011;24474;48.906;8.808;2022-08-11T06:19:30;4.72;;;1.95;;
38725;SDS011;24474;48.906;8.808;2022-08-11T06:22:03;7.25;;;2.35;;
38725;SDS011;24474;48.906;8.808;2022-08-11T06:24:30;3.78;;;2.00;;
38725;SDS011;24474;48.906;8.808;2022-08-11T06:26:56;5.35;;;2.10;;
38725;SDS011;24474;48.906;8.808;2022-08-11T06:29:24;5.72;;;2.17;;
38725;SDS011;24474;48.906;8.808;2022-08-11T06:31:56;4.65;;;1.92;;
38725;SDS011;24474;48.906;8.808;2022-08-11T06:37:26;5.60;;;2.10;;
38725;SDS011;24474;48.906;8.808;2022-08-11T06:40:12;2.77;;;2.20;;
38725;SDS011;24474;48.906;8.808;2022-08-11T06:42:49;5.35;;;2.10;;
38725;SDS011;24474;48.906;8.808;2022-08-11T06:48:06;5.35;;;2.22;;
38725;SDS011;24474;48.906;8.808;2022-08-11T06:50:51;4.70;;;2.10;;
38725;SDS011;24474;48.906;8.808;2022-08-11T06:53:50;4.55;;;2.00;;
38725;SDS011;24474;48.906;8.808;2022-08-11T06:56:26;4.22;;;2.38;;
38725;SDS011;24474;48.906;8.808;2022-08-11T06:59:15;5.43;;;2.10;;
38725;SDS011;24474;48.906;8.808;2022-08-11T07:04:31;3.53;;;2.10;;
38725;SDS011;24474;48.906;8.808;2022-08-11T07:13:47;4.07;;;2.10;;
38725;SDS011;24474;48.906;8.808;2022-08-11T07:16:35;7.70;;;1.95;;
38725;SDS011;24474;48.906;8.808;2022-08-11T07:19:06;3.80;;;2.10;;
38725;SDS011;24474;48.906;8.808;2022-08-11T07:21:51;4.97;;;2.53;;
38725;SDS011;24474;48.906;8.808;2022-08-11T07:24:54;5.18;;;2.28;;
38725;SDS011;24474;48.906;8.808;2022-08-11T07:28:06;4.90;;;1.98;;
38725;SDS011;24474;48.906;8.808;2022-08-11T07:31:11;3.65;;;2.30;;
38725;SDS011;24474;48.906;8.808;2022-08-11T07:33:52;4.47;;;2.08;;
38725;SDS011;24474;48.906;8.808;2022-08-11T07:36:27;4.80;;;2.25;;
38725;SDS011;24474;48.906;8.808;2022-08-11T07:38:55;3.90;;;1.90;;
38725;SDS011;24474;48.906;8.808;2022-08-11T07:41:22;4.90;;;2.22;;
38725;SDS011;24474;48.906;8.808;2022-08-11T07:43:54;6.82;;;2.20;;
38725;SDS011;24474;48.906;8.808;2022-08-11T07:46:33;4.15;;;1.95;;
38725;SDS011;24474;48.906;8.808;2022-08-11T07:49:21;5.13;;;2.10;;
38725;SDS011;24474;48.906;8.808;2022-08-11T07:52:06;4.85;;;2.05;;
38725;SDS011;24474;48.906;8.808;2022-08-11T07:54:51;6.05;;;2.40;;
38725;SDS011;24474;48.906;8.808;2022-08-11T07:57:17;4.43;;;2.40;;
38725;SDS011;24474;48.906;8.808;2022-08-11T08:00:02;4.70;;;2.00;;
38725;SDS011;24474;48.906;8.808;2022-08-11T08:02:47;5.40;;;2.15;;
38725;SDS011;24474;48.906;8.808;2022-08-11T08:05:31;7.95;;;2.22;;
38725;SDS011;24474;48.906;8.808;2022-08-11T08:08:16;3.55;;;2.30;;
38725;SDS011;24474;48.906;8.808;2022-08-11T08:11:01;6.57;;;2.40;;
38725;SDS011;24474;48.906;8.808;2022-08-11T08:13:47;5.90;;;2.30;;
38725;SDS011;24474;48.906;8.808;2022-08-11T08:16:32;5.28;;;2.00;;
38725;SDS011;24474;48.906;8.808;2022-08-11T08:19:18;8.20;;;2.50;;
38725;SDS011;24474;48.906;8.808;2022-08-11T08:21:45;9.45;;;1.92;;
38725;SDS011;24474;48.906;8.808;2022-08-11T08:24:12;3.47;;;1.98;;
38725;SDS011;24474;48.906;8.808;2022-08-11T08:26:39;3.58;;;1.80;;
38725;SDS011;24474;48.906;8.808;2022-08-11T08:29:30;3.72;;;2.17;;
38725;SDS011;24474;48.906;8.808;2022-08-11T08:32:17;6.50;;;2.30;;
38725;SDS011;24474;48.906;8.808;2022-08-11T08:34:44;5.35;;;2.25;;
38725;SDS011;24474;48.906;8.808;2022-08-11T08:37:11;5.25;;;2.30;;
38725;SDS011;24474;48.906;8.808;2022-08-11T08:39:39;6.13;;;2.30;;
38725;SDS011;24474;48.906;8.808;2022-08-11T08:42:06;4.25;;;2.28;;
38725;SDS011;24474;48.906;8.808;2022-08-11T08:44:38;6.45;;;2.30;;
38725;SDS011;24474;48.906;8.808;2022-08-11T08:47:12;6.80;;;2.20;;
38725;SDS011;24474;48.906;8.808;2022-08-11T08:49:40;7.03;;;2.60;;
38725;SDS011;24474;48.906;8.808;2022-08-11T08:52:21;8.20;;;2.28;;
38725;SDS011;24474;48.906;8.808;2022-08-11T08:54:50;5.20;;;2.00;;
38725;SDS011;24474;48.906;8.808;2022-08-11T08:57:21;4.80;;;1.90;;
38725;SDS011;24474;48.906;8.808;2022-08-11T08:59:48;3.28;;;1.80;;
38725;SDS011;24474;48.906;8.808;2022-08-11T09:02:22;3.67;;;1.80;;
38725;SDS011;24474;48.906;8.808;2022-08-11T09:04:49;4.35;;;2.10;;
38725;SDS011;24474;48.906;8.808;2022-08-11T09:07:17;6.72;;;2.17;;
38725;SDS011;24474;48.906;8.808;2022-08-11T09:09:48;3.92;;;1.88;;
38725;SDS011;24474;48.906;8.808;2022-08-11T09:12:17;3.72;;;2.03;;
38725;SDS011;24474;48.906;8.808;2022-08-11T09:14:46;6.85;;;2.15;;
38725;SDS011;24474;48.906;8.808;2022-08-11T09:17:38;9.40;;;2.30;;
38725;SDS011;24474;48.906;8.808;2022-08-11T09:20:25;9.38;;;2.30;;
38725;SDS011;24474;48.906;8.808;2022-08-11T09:22:58;5.07;;;2.33;;
38725;SDS011;24474;48.906;8.808;2022-08-11T09:25:45;8.23;;;2.03;;
38725;SDS011;24474;48.906;8.808;2022-08-11T09:28:31;4.10;;;1.88;;
38725;SDS011;24474;48.906;8.808;2022-08-11T09:30:58;5.80;;;2.03;;
38725;SDS011;24474;48.906;8.808;2022-08-11T09:33:26;7.15;;;2.22;;
38725;SDS011;24474;48.906;8.808;2022-08-11T09:35:53;5.65;;;2.10;;
38725;SDS011;24474;48.906;8.808;2022-08-11T09:38:22;2.65;;;1.70;;
38725;SDS011;24474;48.906;8.808;2022-08-11T09:41:09;3.85;;;2.00;;
38725;SDS011;24474;48.906;8.808;2022-08-11T09:43:38;5.45;;;1.90;;
38725;SDS011;24474;48.906;8.808;2022-08-11T09:46:26;1.80;;;1.33;;
38725;SDS011;24474;48.906;8.808;2022-08-11T09:48:54;3.00;;;1.65;;
38725;SDS011;24474;48.906;8.808;2022-08-11T09:51:25;5.50;;;1.58;;
38725;SDS011;24474;48.906;8.808;2022-08-11T09:53:56;6.43;;;1.63;;
38725;SDS011;24474;48.906;8.808;2022-08-11T09:56:26;3.63;;;1.55;;
38725;SDS011;24474;48.906;8.808;2022-08-11T09:59:12;5.78;;;1.48;;
38725;SDS011;24474;48.906;8.808;2022-08-11T10:01:39;5.15;;;1.70;;
38725;SDS011;24474;48.906;8.808;2022-08-11T10:04:12;5.57;;;1.55;;
38725;SDS011;24474;48.906;8.808;2022-08-11T10:06:48;4.80;;;1.60;;
38725;SDS011;24474;48.906;8.808;2022-08-11T10:09:27;3.92;;;1.65;;
38725;SDS011;24474;48.906;8.808;2022-08-11T10:12:02;3.85;;;1.50;;
38725;SDS011;24474;48.906;8.808;2022-08-11T10:14:33;5.32;;;1.63;;
38725;SDS011;24474;48.906;8.808;2022-08-11T10:17:26;4.20;;;1.50;;
38725;SDS011;24474;48.906;8.808;2022-08-11T10:19:59;3.10;;;1.60;;
38725;SDS011;24474;48.906;8.808;2022-08-11T10:22:29;2.75;;;1.75;;
38725;SDS011;24474;48.906;8.808;2022-08-11T10:25:15;4.30;;;1.55;;
38725;SDS011;24474;48.906;8.808;2022-08-11T10:28:01;3.70;;;1.70;;
38725;SDS011;24474;48.906;8.808;2022-08-11T10:33:15;4.65;;;1.55;;
38725;SDS011;24474;48.906;8.808;2022-08-11T10:36:02;1.95;;;1.40;;
38725;SDS011;24474;48.906;8.808;2022-08-11T10:38:30;3.33;;;1.38;;
38725;SDS011;24474;48.906;8.808;2022-08-11T10:40:58;4.43;;;1.40;;
38725;SDS011;24474;48.906;8.808;2022-08-11T10:43:43;5.05;;;1.50;;
38725;SDS011;24474;48.906;8.808;2022-08-11T10:46:09;4.60;;;1.70;;
38725;SDS011;24474;48.906;8.808;2022-08-11T10:48:54;4.07;;;1.50;;
38725;SDS011;24474;48.906;8.808;2022-08-11T10:51:26;2.78;;;1.40;;
38725;SDS011;24474;48.906;8.808;2022-08-11T10:54:11;3.70;;;1.55;;
38725;SDS011;24474;48.906;8.808;2022-08-11T10:56:58;3.75;;;1.63;;
38725;SDS011;24474;48.906;8.808;2022-08-11T10:59:43;4.35;;;1.63;;
38725;SDS011;24474;48.906;8.808;2022-08-11T11:02:11;4.15;;;1.45;;
38725;SDS011;24474;48.906;8.808;2022-08-11T11:07:18;4.55;;;1.63;;
38725;SDS011;24474;48.906;8.808;2022-08-11T11:09:57;4.82;;;1.45;;
38725;SDS011;24474;48.906;8.808;2022-08-11T11:12:32;3.15;;;1.55;;
38725;SDS011;24474;48.906;8.808;2022-08-11T11:15:29;4.07;;;1.80;;
38725;SDS011;24474;48.906;8.808;2022-08-11T11:18:24;5.40;;;1.70;;
38725;SDS011;24474;48.906;8.808;2022-08-11T11:20:58;4.90;;;1.45;;
38725;SDS011;24474;48.906;8.808;2022-08-11T11:29:13;3.28;;;1.60;;
38725;SDS011;24474;48.906;8.808;2022-08-11T11:38:21;3.28;;;1.60;;
38725;SDS011;24474;48.906;8.808;2022-08-11T11:40:47;3.92;;;1.55;;
38725;SDS011;24474;48.906;8.808;2022-08-11T11:43:34;3.67;;;1.38;;
38725;SDS011;24474;48.906;8.808;2022-08-11T11:46:03;4.47;;;1.52;;
38725;SDS011;24474;48.906;8.808;2022-08-11T11:48:30;3.28;;;1.58;;
38725;SDS011;24474;48.906;8.808;2022-08-11T11:50:59;4.53;;;1.20;;
38725;SDS011;24474;48.906;8.808;2022-08-11T11:53:27;4.88;;;1.38;;
38725;SDS011;24474;48.906;8.808;2022-08-11T11:55:53;4.93;;;1.50;;
38725;SDS011;24474;48.906;8.808;2022-08-11T11:58:20;4.38;;;1.60;;
38725;SDS011;24474;48.906;8.808;2022-08-11T12:01:05;4.68;;;1.58;;
38725;SDS011;24474;48.906;8.808;2022-08-11T12:03:43;3.47;;;1.50;;
38725;SDS011;24474;48.906;8.808;2022-08-11T12:06:13;2.78;;;1.40;;
38725;SDS011;24474;48.906;8.808;2022-08-11T12:08:40;3.35;;;1.50;;
38725;SDS011;24474;48.906;8.808;2022-08-11T12:11:10;3.55;;;1.50;;
38725;SDS011;24474;48.906;8.808;2022-08-11T12:13:59;2.22;;;1.50;;
38725;SDS011;24474;48.906;8.808;2022-08-11T12:16:27;2.88;;;1.30;;
38725;SDS011;24474;48.906;8.808;2022-08-11T12:18:54;3.58;;;1.25;;
38725;SDS011;24474;48.906;8.808;2022-08-11T12:21:25;4.65;;;1.50;;
38725;SDS011;24474;48.906;8.808;2022-08-11T12:23:54;2.45;;;1.30;;
38725;SDS011;24474;48.906;8.808;2022-08-11T12:26:43;2.63;;;1.60;;
38725;SDS011;24474;48.906;8.808;2022-08-11T12:29:28;4.93;;;1.50;;
38725;SDS011;24474;48.906;8.808;2022-08-11T12:31:56;2.45;;;1.30;;
38725;SDS011;24474;48.906;8.808;2022-08-11T12:34:26;2.10;;;1.30;;
38725;SDS011;24474;48.906;8.808;2022-08-11T12:37:00;2.88;;;1.13;;
38725;SDS011;24474;48.906;8.808;2022-08-11T12:39:35;3.95;;;1.40;;
38725;SDS011;24474;48.906;8.808;2022-08-11T12:42:20;3.60;;;1.38;;
38725;SDS011;24474;48.906;8.808;2022-08-11T12:45:07;2.22;;;1.35;;
38725;SDS011;24474;48.906;8.808;2022-08-11T12:48:02;3.90;;;1.42;;
38725;SDS011;24474;48.906;8.808;2022-08-11T12:51:00;3.13;;;1.20;;
38725;SDS011;24474;48.906;8.808;2022-08-11T12:54:32;3.00;;;1.35;;
38725;SDS011;24474;48.906;8.808;2022-08-11T12:56:45;3.80;;;1.13;;
38725;SDS011;24474;48.906;8.808;2022-08-11T12:59:33;8.43;;;1.30;;
38725;SDS011;24474;48.906;8.808;2022-08-11T13:02:19;2.28;;;1.23;;
38725;SDS011;24474;48.906;8.808;2022-08-11T13:05:07;2.78;;;1.40;;
38725;SDS011;24474;48.906;8.808;2022-08-11T13:07:37;6.82;;;1.60;;
38725;SDS011;24474;48.906;8.808;2022-08-11T13:10:11;1.65;;;1.35;;
38725;SDS011;24474;48.906;8.808;2022-08-11T13:12:39;2.75;;;1.15;;
38725;SDS011;24474;48.906;8.808;2022-08-11T13:15:16;3.10;;;1.40;;
38725;SDS011;24474;48.906;8.808;2022-08-11T13:17:46;3.97;;;1.60;;
38725;SDS011;24474;48.906;8.808;2022-08-11T13:20:16;4.07;;;1.35;;
38725;SDS011;24474;48.906;8.808;2022-08-11T13:22:47;2.60;;;1.30;;
38725;SDS011;24474;48.906;8.808;2022-08-11T13:25:16;4.90;;;1.20;;
38725;SDS011;24474;48.906;8.808;2022-08-11T13:27:44;3.30;;;1.30;;
38725;SDS011;24474;48.906;8.808;2022-08-11T13:30:16;2.45;;;1.20;;
38725;SDS011;24474;48.906;8.808;2022-08-11T13:33:03;3.20;;;1.25;;
38725;SDS011;24474;48.906;8.808;2022-08-11T13:35:33;2.17;;;1.40;;
38725;SDS011;24474;48.906;8.808;2022-08-11T13:38:06;1.73;;;1.40;;
38725;SDS011;24474;48.906;8.808;2022-08-11T13:40:38;2.55;;;1.20;;
38725;SDS011;24474;48.906;8.808;2022-08-11T13:43:05;2.13;;;1.10;;
38725;SDS011;24474;48.906;8.808;2022-08-11T13:45:31;1.75;;;1.10;;
38725;SDS011;24474;48.906;8.808;2022-08-11T13:47:58;2.33;;;1.33;;
38725;SDS011;24474;48.906;8.808;2022-08-11T13:50:25;3.03;;;1.20;;
38725;SDS011;24474;48.906;8.808;2022-08-11T13:53:10;3.72;;;1.27;;
38725;SDS011;24474;48.906;8.808;2022-08-11T13:55:37;2.08;;;1.13;;
38725;SDS011;24474;48.906;8.808;2022-08-11T13:58:06;2.85;;;1.00;;
38725;SDS011;24474;48.906;8.808;2022-08-11T14:03:03;2.78;;;1.17;;
38725;SDS011;24474;48.906;8.808;2022-08-11T14:05:36;2.03;;;1.00;;
38725;SDS011;24474;48.906;8.808;2022-08-11T14:08:13;1.70;;;1.05;;
38725;SDS011;24474;48.906;8.808;2022-08-11T14:10:47;2.80;;;0.93;;
38725;SDS011;24474;48.906;8.808;2022-08-11T14:13:40;5.68;;;1.40;;
38725;SDS011;24474;48.906;8.808;2022-08-11T14:16:08;2.40;;;1.20;;
38725;SDS011;24474;48.906;8.808;2022-08-11T14:18:42;4.00;;;1.33;;
38725;SDS011;24474;48.906;8.808;2022-08-11T14:21:12;5.30;;;1.33;;
38725;SDS011;24474;48.906;8.808;2022-08-11T14:23:59;2.83;;;1.10;;
38725;SDS011;24474;48.906;8.808;2022-08-11T14:26:27;5.72;;;1.25;;
38725;SDS011;24474;48.906;8.808;2022-08-11T14:31:22;4.00;;;1.50;;
38725;SDS011;24474;48.906;8.808;2022-08-11T14:33:51;3.65;;;1.20;;
38725;SDS011;24474;48.906;8.808;2022-08-11T14:36:24;4.00;;;1.40;;
38725;SDS011;24474;48.906;8.808;2022-08-11T14:38:53;3.63;;;1.17;;
38725;SDS011;24474;48.906;8.808;2022-08-11T14:44:25;3.15;;;1.23;;
38725;SDS011;24474;48.906;8.808;2022-08-11T14:47:10;2.75;;;1.08;;
38725;SDS011;24474;48.906;8.808;2022-08-11T14:49:39;3.17;;;1.20;;
38725;SDS011;24474;48.906;8.808;2022-08-11T14:52:07;3.70;;;1.10;;
38725;SDS011;24474;48.906;8.808;2022-08-11T14:54:53;3.00;;;1.20;;
38725;SDS011;24474;48.906;8.808;2022-08-11T14:57:39;1.92;;;1.05;;
38725;SDS011;24474;48.906;8.808;2022-08-11T15:00:06;2.05;;;1.23;;
38725;SDS011;24474;48.906;8.808;2022-08-11T15:02:35;2.53;;;1.10;;
38725;SDS011;24474;48.906;8.808;2022-08-11T15:05:22;2.40;;;1.05;;
38725;SDS011;24474;48.906;8.808;2022-08-11T15:07:52;4.07;;;1.10;;
38725;SDS011;24474;48.906;8.808;2022-08-11T15:10:20;2.88;;;1.20;;
38725;SDS011;24474;48.906;8.808;2022-08-11T15:12:46;2.92;;;1.20;;
38725;SDS011;24474;48.906;8.808;2022-08-11T15:15:13;2.65;;;1.10;;
38725;SDS011;24474;48.906;8.808;2022-08-11T15:18:00;2.42;;;1.00;;
38725;SDS011;24474;48.906;8.808;2022-08-11T15:20:29;4.53;;;1.20;;
38725;SDS011;24474;48.906;8.808;2022-08-11T15:23:14;2.10;;;1.15;;
38725;SDS011;24474;48.906;8.808;2022-08-11T15:28:48;7.90;;;1.50;;
38725;SDS011;24474;48.906;8.808;2022-08-11T15:31:35;5.50;;;1.40;;
38725;SDS011;24474;48.906;8.808;2022-08-11T15:34:24;2.67;;;1.23;;
38725;SDS011;24474;48.906;8.808;2022-08-11T15:37:12;4.13;;;1.17;;
38725;SDS011;24474;48.906;8.808;2022-08-11T15:39:51;1.92;;;1.20;;
38725;SDS011;24474;48.906;8.808;2022-08-11T15:42:39;2.60;;;1.40;;
38725;SDS011;24474;48.906;8.808;2022-08-11T15:45:36;2.97;;;1.25;;
38725;SDS011;24474;48.906;8.808;2022-08-11T15:50:58;3.13;;;1.30;;
38725;SDS011;24474;48.906;8.808;2022-08-11T15:53:39;3.60;;;1.40;;
38725;SDS011;24474;48.906;8.808;2022-08-11T15:56:07;4.45;;;1.00;;
38725;SDS011;24474;48.906;8.808;2022-08-11T15:58:37;2.45;;;1.10;;
38725;SDS011;24474;48.906;8.808;2022-08-11T16:01:25;3.95;;;1.13;;
38725;SDS011;24474;48.906;8.808;2022-08-11T16:04:22;2.97;;;1.13;;
38725;SDS011;24474;48.906;8.808;2022-08-11T16:09:36;2.05;;;1.00;;
38725;SDS011;24474;48.906;8.808;2022-08-11T16:12:07;5.57;;;1.35;;
38725;SDS011;24474;48.906;8.808;2022-08-11T16:14:35;1.77;;;1.00;;
38725;SDS011;24474;48.906;8.808;2022-08-11T16:17:24;2.05;;;1.15;;
38725;SDS011;24474;48.906;8.808;2022-08-11T16:19:52;1.98;;;1.08;;
38725;SDS011;24474;48.906;8.808;2022-08-11T16:22:20;1.73;;;1.00;;
38725;SDS011;24474;48.906;8.808;2022-08-11T16:24:52;3.20;;;1.17;;
38725;SDS011;24474;48.906;8.808;2022-08-11T16:27:20;4.50;;;1.10;;
38725;SDS011;24474;48.906;8.808;2022-08-11T16:29:47;2.35;;;1.15;;
38725;SDS011;24474;48.906;8.808;2022-08-11T16:32:19;2.53;;;1.05;;
38725;SDS011;24474;48.906;8.808;2022-08-11T16:34:54;3.92;;;1.10;;
38725;SDS011;24474;48.906;8.808;2022-08-11T16:37:43;4.88;;;1.10;;
38725;SDS011;24474;48.906;8.808;2022-08-11T16:40:29;2.55;;;1.20;;
38725;SDS011;24474;48.906;8.808;2022-08-11T16:42:56;3.30;;;1.10;;
38725;SDS011;24474;48.906;8.808;2022-08-11T16:45:43;3.30;;;1.13;;
38725;SDS011;24474;48.906;8.808;2022-08-11T16:48:33;1.63;;;0.95;;
38725;SDS011;24474;48.906;8.808;2022-08-11T16:51:01;4.85;;;1.00;;
38725;SDS011;24474;48.906;8.808;2022-08-11T16:53:30;2.80;;;0.93;;
38725;SDS011;24474;48.906;8.808;2022-08-11T16:55:57;3.50;;;1.10;;
38725;SDS011;24474;48.906;8.808;2022-08-11T17:01:12;2.20;;;1.30;;
38725;SDS011;24474;48.906;8.808;2022-08-11T17:03:42;3.60;;;1.17;;
38725;SDS011;24474;48.906;8.808;2022-08-11T17:06:29;3.67;;;1.05;;
38725;SDS011;24474;48.906;8.808;2022-08-11T17:09:17;5.07;;;1.10;;
38725;SDS011;24474;48.906;8.808;2022-08-11T17:12:05;2.70;;;1.35;;
38725;SDS011;24474;48.906;8.808;2022-08-11T17:14:54;5.15;;;1.70;;
38725;SDS011;24474;48.906;8.808;2022-08-11T17:17:35;2.38;;;1.40;;
38725;SDS011;24474;48.906;8.808;2022-08-11T17:20:03;3.35;;;1.45;;
38725;SDS011;24474;48.906;8.808;2022-08-11T17:22:35;3.97;;;1.60;;
38725;SDS011;24474;48.906;8.808;2022-08-11T17:25:28;4.70;;;1.38;;
38725;SDS011;24474;48.906;8.808;2022-08-11T17:27:59;1.77;;;1.20;;
38725;SDS011;24474;48.906;8.808;2022-08-11T17:30:28;1.50;;;1.05;;
38725;SDS011;24474;48.906;8.808;2022-08-11T17:33:21;2.30;;;0.82;;
38725;SDS011;24474;48.906;8.808;2022-08-11T17:36:08;1.52;;;1.13;;
38725;SDS011;24474;48.906;8.808;2022-08-11T17:38:37;5.45;;;1.25;;
38725;SDS011;24474;48.906;8.808;2022-08-11T17:41:05;1.52;;;0.90;;
38725;SDS011;24474;48.906;8.808;2022-08-11T17:43:51;2.90;;;1.20;;
38725;SDS011;24474;48.906;8.808;2022-08-11T17:46:38;2.92;;;1.58;;
38725;SDS011;24474;48.906;8.808;2022-08-11T17:49:23;3.95;;;1.30;;
38725;SDS011;24474;48.906;8.808;2022-08-11T17:51:56;3.58;;;1.40;;
38725;SDS011;24474;48.906;8.808;2022-08-11T17:54:40;2.08;;;1.35;;
38725;SDS011;24474;48.906;8.808;2022-08-11T17:57:27;4.15;;;1.52;;
38725;SDS011;24474;48.906;8.808;2022-08-11T18:00:14;3.00;;;1.30;;
38725;SDS011;24474;48.906;8.808;2022-08-11T18:02:42;4.43;;;1.23;;
38725;SDS011;24474;48.906;8.808;2022-08-11T18:05:30;2.45;;;1.40;;
38725;SDS011;24474;48.906;8.808;2022-08-11T18:07:59;2.42;;;1.00;;
38725;SDS011;24474;48.906;8.808;2022-08-11T18:10:49;2.25;;;1.10;;
38725;SDS011;24474;48.906;8.808;2022-08-11T18:13:37;3.00;;;1.33;;
38725;SDS011;24474;48.906;8.808;2022-08-11T18:16:24;4.50;;;1.27;;
38725;SDS011;24474;48.906;8.808;2022-08-11T18:19:12;3.63;;;1.33;;
38725;SDS011;24474;48.906;8.808;2022-08-11T18:22:00;5.45;;;1.38;;
38725;SDS011;24474;48.906;8.808;2022-08-11T18:24:53;5.15;;;1.38;;
38725;SDS011;24474;48.906;8.808;2022-08-11T18:27:45;2.80;;;1.40;;
38725;SDS011;24474;48.906;8.808;2022-08-11T18:30:32;5.95;;;1.40;;
38725;SDS011;24474;48.906;8.808;2022-08-11T18:33:21;2.92;;;1.15;;
38725;SDS011;24474;48.906;8.808;2022-08-11T18:36:14;3.70;;;1.40;;
38725;SDS011;24474;48.906;8.808;2022-08-11T18:39:04;4.82;;;1.45;;
38725;SDS011;24474;48.906;8.808;2022-08-11T18:41:51;2.97;;;1.30;;
38725;SDS011;24474;48.906;8.808;2022-08-11T18:44:37;3.10;;;1.23;;
38725;SDS011;24474;48.906;8.808;2022-08-11T18:47:21;1.63;;;1.30;;
38725;SDS011;24474;48.906;8.808;2022-08-11T18:50:08;2.75;;;1.42;;
38725;SDS011;24474;48.906;8.808;2022-08-11T18:52:55;6.18;;;1.45;;
38725;SDS011;24474;48.906;8.808;2022-08-11T18:55:41;2.30;;;1.20;;
38725;SDS011;24474;48.906;8.808;2022-08-11T18:58:28;6.32;;;1.65;;
38725;SDS011;24474;48.906;8.808;2022-08-11T19:01:14;4.40;;;1.40;;
38725;SDS011;24474;48.906;8.808;2022-08-11T19:04:01;4.82;;;1.50;;
38725;SDS011;24474;48.906;8.808;2022-08-11T19:06:48;2.72;;;1.55;;
38725;SDS011;24474;48.906;8.808;2022-08-11T19:09:39;4.13;;;1.42;;
38725;SDS011;24474;48.906;8.808;2022-08-11T19:12:27;2.45;;;1.50;;
38725;SDS011;24474;48.906;8.808;2022-08-11T19:15:14;6.75;;;1.70;;
38725;SDS011;24474;48.906;8.808;2022-08-11T19:18:00;5.40;;;1.70;;
38725;SDS011;24474;48.906;8.808;2022-08-11T19:20:45;5.25;;;1.67;;
38725;SDS011;24474;48.906;8.808;2022-08-11T19:23:35;6.78;;;1.63;;
38725;SDS011;24474;48.906;8.808;2022-08-11T19:26:25;4.97;;;1.77;;
38725;SDS011;24474;48.906;8.808;2022-08-11T19:29:22;7.20;;;1.70;;
38725;SDS011;24474;48.906;8.808;2022-08-11T19:32:10;8.32;;;1.85;;
38725;SDS011;24474;48.906;8.808;2022-08-11T19:34:56;9.07;;;5.00;;
38725;SDS011;24474;48.906;8.808;2022-08-11T19:37:43;6.32;;;2.40;;
38725;SDS011;24474;48.906;8.808;2022-08-11T19:40:32;3.15;;;1.67;;
38725;SDS011;24474;48.906;8.808;2022-08-11T19:43:20;5.00;;;1.90;;
38725;SDS011;24474;48.906;8.808;2022-08-11T19:46:10;3.25;;;1.40;;
38725;SDS011;24474;48.906;8.808;2022-08-11T19:48:58;2.80;;;1.50;;
38725;SDS011;24474;48.906;8.808;2022-08-11T19:51:44;5.20;;;1.67;;
38725;SDS011;24474;48.906;8.808;2022-08-11T19:54:30;2.83;;;1.75;;
38725;SDS011;24474;48.906;8.808;2022-08-11T19:57:17;4.65;;;1.48;;